createdAt,value
2018-07-08T00:01:06.290Z,92.80
2018-07-08T00:03:33.814Z,92.40
2018-07-08T00:06:01.436Z,93.50
2018-07-08T00:08:29.075Z,93.00
2018-07-08T00:10:58.283Z,92.70
2018-07-08T00:13:25.971Z,92.50
2018-07-08T00:15:54.073Z,92.40
2018-07-08T00:18:23.437Z,91.30
2018-07-08T00:23:20.916Z,92.00
2018-07-08T00:25:48.659Z,91.80
2018-07-08T00:28:17.264Z,92.20
2018-07-08T00:30:45.007Z,92.90
2018-07-08T00:33:12.558Z,92.60
2018-07-08T00:35:40.897Z,91.60
2018-07-08T00:40:36.343Z,91.70
2018-07-08T00:43:04.705Z,91.20
2018-07-08T00:45:32.987Z,91.90
2018-07-08T00:48:01.249Z,91.60
2018-07-08T00:50:29.451Z,90.80
2018-07-08T00:57:53.795Z,90.20
2018-07-08T01:00:30.683Z,89.80
2018-07-08T01:02:58.593Z,89.80
2018-07-08T01:05:26.442Z,89.40
2018-07-08T01:07:54.041Z,90.00
2018-07-08T01:10:22.256Z,89.50
2018-07-08T01:12:50.218Z,88.70
2018-07-08T01:15:17.766Z,88.90
2018-07-08T01:17:46.003Z,88.80
2018-07-08T01:20:13.942Z,88.60
2018-07-08T01:22:41.497Z,88.80
2018-07-08T01:25:11.939Z,88.70
2018-07-08T01:27:40.620Z,88.50
2018-07-08T01:30:08.733Z,87.90
2018-07-08T01:32:36.289Z,88.00
2018-07-08T01:35:04.743Z,88.60
2018-07-08T01:37:32.672Z,88.80
2018-07-08T01:40:00.814Z,88.10
2018-07-08T01:42:30.095Z,87.90
2018-07-08T01:44:58.682Z,87.30
2018-07-08T01:47:26.545Z,86.90
2018-07-08T01:49:54.513Z,86.40
2018-07-08T01:52:23.475Z,86.70
2018-07-08T01:54:51.368Z,86.50
2018-07-08T01:57:19.682Z,86.40
2018-07-08T01:59:50.520Z,87.00
2018-07-08T02:04:46.433Z,86.40
2018-07-08T02:07:14.851Z,86.10
2018-07-08T02:09:43.786Z,85.80
2018-07-08T02:12:11.373Z,85.50
2018-07-08T02:14:38.959Z,85.20
2018-07-08T02:17:07.763Z,85.40
2018-07-08T02:19:35.973Z,85.60
2018-07-08T02:22:04.054Z,85.60
2018-07-08T02:24:31.651Z,85.10
2018-07-08T02:26:59.313Z,85.00
2018-07-08T02:29:27.208Z,84.70
2018-07-08T02:31:54.833Z,84.70
2018-07-08T02:34:22.491Z,85.20
2018-07-08T02:36:50.464Z,85.00
2018-07-08T02:39:17.984Z,84.50
2018-07-08T02:41:46.206Z,84.10
2018-07-08T02:44:14.235Z,84.50
2018-07-08T02:46:42.232Z,84.10
2018-07-08T02:51:37.520Z,84.40
2018-07-08T02:54:05.215Z,84.10
2018-07-08T02:56:32.852Z,83.90
2018-07-08T02:59:01.120Z,84.10
2018-07-08T03:01:29.152Z,84.10
2018-07-08T03:03:56.723Z,84.10
2018-07-08T03:06:24.835Z,83.80
2018-07-08T03:08:53.584Z,83.70
2018-07-08T03:11:22.172Z,84.10
2018-07-08T03:13:49.827Z,84.10
2018-07-08T03:16:18.122Z,83.90
2018-07-08T03:18:46.411Z,83.70
2018-07-08T03:21:13.936Z,83.30
2018-07-08T03:23:41.531Z,83.00
2018-07-08T03:26:09.133Z,84.40
2018-07-08T03:28:36.656Z,84.00
2018-07-08T03:31:04.479Z,83.40
2018-07-08T03:33:32.068Z,83.40
2018-07-08T03:36:00.000Z,84.10
2018-07-08T03:38:28.150Z,83.70
2018-07-08T03:40:56.216Z,84.50
2018-07-08T03:43:24.120Z,84.20
2018-07-08T03:45:52.006Z,84.00
2018-07-08T03:48:19.560Z,85.40
2018-07-08T03:50:47.166Z,84.50
2018-07-08T03:53:14.739Z,84.00
2018-07-08T03:55:42.831Z,84.00
2018-07-08T03:58:10.747Z,84.10
2018-07-08T04:00:38.884Z,83.90
2018-07-08T04:03:06.403Z,84.80
2018-07-08T04:05:34.623Z,83.70
2018-07-08T04:08:02.203Z,83.80
2018-07-08T04:10:30.376Z,84.40
2018-07-08T04:12:58.663Z,84.00
2018-07-08T04:15:26.990Z,84.00
2018-07-08T04:18:05.851Z,83.60
2018-07-08T04:20:33.569Z,83.90
2018-07-08T04:23:01.323Z,83.50
2018-07-08T04:25:29.659Z,83.50
2018-07-08T04:27:57.487Z,83.30
2018-07-08T04:30:25.070Z,83.40
2018-07-08T04:32:52.649Z,83.50
2018-07-08T04:35:20.651Z,83.40
2018-07-08T04:37:48.261Z,83.10
2018-07-08T04:40:16.284Z,83.20
2018-07-08T04:42:44.504Z,82.90
2018-07-08T04:45:12.650Z,83.10
2018-07-08T04:47:40.191Z,83.20
2018-07-08T04:50:08.285Z,82.70
2018-07-08T04:52:35.864Z,82.70
2018-07-08T04:55:03.572Z,82.60
2018-07-08T04:57:31.835Z,82.60
2018-07-08T05:00:00.304Z,82.20
2018-07-08T05:02:28.294Z,82.00
2018-07-08T05:04:55.803Z,82.20
2018-07-08T05:07:23.379Z,82.40
2018-07-08T05:09:51.457Z,81.90
2018-07-08T05:14:46.499Z,81.60
2018-07-08T05:17:14.808Z,82.20
2018-07-08T05:19:42.376Z,81.50
2018-07-08T05:22:10.411Z,81.30
2018-07-08T05:24:37.987Z,81.10
2018-07-08T05:27:05.515Z,81.20
2018-07-08T05:29:33.169Z,81.30
2018-07-08T05:32:00.955Z,81.00
2018-07-08T05:34:28.902Z,80.80
2018-07-08T05:36:57.397Z,80.80
2018-07-08T05:39:25.508Z,80.70
2018-07-08T05:41:53.768Z,80.50
2018-07-08T05:44:22.387Z,80.60
2018-07-08T05:46:49.944Z,80.10
2018-07-08T05:49:17.929Z,80.20
2018-07-08T05:51:45.945Z,80.30
2018-07-08T05:54:13.707Z,80.00
2018-07-08T05:56:41.239Z,79.80
2018-07-08T05:59:09.299Z,79.60
2018-07-08T06:01:37.718Z,79.20
2018-07-08T06:04:05.239Z,78.80
2018-07-08T06:06:32.784Z,78.30
2018-07-08T06:09:00.787Z,78.30
2018-07-08T06:11:28.360Z,79.30
2018-07-08T06:13:56.148Z,79.20
2018-07-08T06:16:23.700Z,79.20
2018-07-08T06:18:51.878Z,79.60
2018-07-08T06:21:19.684Z,78.70
2018-07-08T06:23:47.224Z,78.30
2018-07-08T06:26:14.784Z,78.30
2018-07-08T06:28:42.360Z,78.20
2018-07-08T06:31:11.016Z,76.70
2018-07-08T06:33:38.575Z,77.00
2018-07-08T06:36:06.672Z,75.70
2018-07-08T06:38:34.936Z,75.50
2018-07-08T06:41:02.823Z,75.00
2018-07-08T06:43:30.779Z,74.70
2018-07-08T06:45:58.656Z,74.20
2018-07-08T06:48:26.731Z,74.40
2018-07-08T06:50:54.907Z,74.90
2018-07-08T06:53:23.090Z,73.90
2018-07-08T06:55:51.195Z,73.20
2018-07-08T06:58:19.555Z,73.20
2018-07-08T07:00:47.762Z,71.20
2018-07-08T07:03:15.816Z,72.70
2018-07-08T07:05:44.110Z,72.80
2018-07-08T07:08:12.894Z,73.40
2018-07-08T07:10:40.949Z,72.70
2018-07-08T07:13:08.999Z,72.50
2018-07-08T07:15:37.115Z,71.90
2018-07-08T07:18:05.224Z,71.60
2018-07-08T07:20:33.976Z,69.90
2018-07-08T07:23:02.796Z,70.80
2018-07-08T07:25:30.338Z,70.80
2018-07-08T07:27:58.515Z,70.30
2018-07-08T07:30:27.255Z,70.60
2018-07-08T07:32:55.486Z,69.10
2018-07-08T07:35:23.767Z,70.30
2018-07-08T07:40:19.241Z,69.40
2018-07-08T07:42:46.817Z,69.60
2018-07-08T07:45:14.943Z,69.40
2018-07-08T07:47:42.488Z,69.20
2018-07-08T07:50:10.675Z,69.00
2018-07-08T07:55:06.788Z,67.70
2018-07-08T07:57:35.024Z,66.50
2018-07-08T08:00:04.041Z,66.10
2018-07-08T08:02:31.616Z,64.50
2018-07-08T08:04:59.598Z,64.40
2018-07-08T08:07:27.148Z,65.20
2018-07-08T08:09:55.163Z,65.70
2018-07-08T08:12:22.716Z,65.10
2018-07-08T08:14:51.374Z,64.50
2018-07-08T08:17:19.945Z,64.50
2018-07-08T08:19:47.743Z,64.70
2018-07-08T08:22:16.616Z,63.10
2018-07-08T08:24:45.176Z,62.90
2018-07-08T08:27:13.841Z,62.30
2018-07-08T08:29:42.940Z,63.30
2018-07-08T08:32:11.503Z,62.70
2018-07-08T08:34:50.612Z,62.20
2018-07-08T08:37:21.536Z,61.90
2018-07-08T08:39:50.984Z,60.50
2018-07-08T08:42:18.795Z,61.40
2018-07-08T08:44:47.801Z,61.20
2018-07-08T08:47:16.408Z,60.90
2018-07-08T08:49:44.529Z,58.30
2018-07-08T08:52:12.965Z,60.20
2018-07-08T08:54:41.236Z,58.60
2018-07-08T08:57:09.504Z,60.30
2018-07-08T08:59:37.830Z,58.10
2018-07-08T09:02:06.780Z,59.50
2018-07-08T09:04:34.768Z,59.10
2018-07-08T09:07:02.629Z,58.60
2018-07-08T09:09:33.082Z,59.30
2018-07-08T09:12:01.612Z,59.20
2018-07-08T09:14:29.776Z,59.60
2018-07-08T09:16:57.539Z,59.70
2018-07-08T09:19:25.914Z,60.00
2018-07-08T09:21:54.571Z,58.80
2018-07-08T09:24:23.452Z,59.00
2018-07-08T09:26:51.669Z,58.10
2018-07-08T09:29:19.707Z,58.40
2018-07-08T09:31:49.305Z,58.80
2018-07-08T09:34:17.215Z,58.40
2018-07-08T09:36:45.835Z,57.40
2018-07-08T09:39:15.352Z,56.20
2018-07-08T09:41:44.540Z,56.40
2018-07-08T09:44:14.067Z,56.30
2018-07-08T09:46:43.556Z,54.70
2018-07-08T09:49:11.897Z,54.50
2018-07-08T09:51:40.211Z,55.60
2018-07-08T09:54:08.775Z,56.40
2018-07-08T09:59:05.152Z,56.20
2018-07-08T10:01:43.769Z,56.50
2018-07-08T10:04:13.635Z,57.20
2018-07-08T10:06:42.070Z,57.00
2018-07-08T10:09:12.685Z,57.30
2018-07-08T10:11:41.314Z,57.30
2018-07-08T10:14:10.720Z,57.20
2018-07-08T10:16:39.567Z,57.20
2018-07-08T10:21:36.994Z,57.80
2018-07-08T10:24:05.285Z,58.60
2018-07-08T10:26:33.590Z,58.50
2018-07-08T10:29:02.048Z,58.70
2018-07-08T10:31:41.171Z,59.70
2018-07-08T10:34:09.131Z,59.20
2018-07-08T10:36:37.622Z,58.60
2018-07-08T10:39:06.752Z,58.30
2018-07-08T10:41:35.538Z,58.40
2018-07-08T10:44:04.468Z,59.30
2018-07-08T10:46:32.865Z,58.00
2018-07-08T10:49:01.156Z,57.80
2018-07-08T10:51:29.090Z,58.00
2018-07-08T10:53:57.212Z,57.00
2018-07-08T10:56:25.818Z,56.40
2018-07-08T10:58:54.571Z,57.50
2018-07-08T11:01:23.271Z,56.40
2018-07-08T11:03:51.183Z,56.40
2018-07-08T11:06:19.106Z,57.00
2018-07-08T11:08:47.697Z,57.30
2018-07-08T11:11:16.306Z,56.70
2018-07-08T11:13:44.696Z,56.90
2018-07-08T11:16:13.348Z,55.80
2018-07-08T11:18:41.836Z,53.70
2018-07-08T11:21:10.267Z,52.10
2018-07-08T11:23:37.974Z,52.80
2018-07-08T11:26:06.768Z,51.60
2018-07-08T11:28:34.933Z,50.80
2018-07-08T11:31:02.840Z,49.80
2018-07-08T11:33:30.625Z,50.90
2018-07-08T11:35:59.038Z,51.60
2018-07-08T11:38:27.828Z,53.10
2018-07-08T11:40:56.495Z,52.80
2018-07-08T11:43:24.910Z,53.20
2018-07-08T11:45:53.484Z,53.70
2018-07-08T11:48:21.206Z,54.10
2018-07-08T11:50:49.003Z,54.70
2018-07-08T11:53:17.123Z,55.50
2018-07-08T11:55:45.196Z,55.90
2018-07-08T11:58:13.656Z,55.30
2018-07-08T12:00:42.342Z,55.00
2018-07-08T12:03:09.876Z,54.20
2018-07-08T12:05:38.588Z,54.60
2018-07-08T12:08:06.202Z,53.80
2018-07-08T12:10:34.790Z,53.80
2018-07-08T12:13:03.423Z,53.70
2018-07-08T12:15:32.280Z,53.30
2018-07-08T12:18:01.008Z,53.50
2018-07-08T12:20:29.348Z,52.90
2018-07-08T12:22:57.996Z,52.60
2018-07-08T12:25:26.379Z,51.40
2018-07-08T12:27:54.194Z,53.50
2018-07-08T12:30:22.183Z,51.80
2018-07-08T12:32:51.000Z,53.70
2018-07-08T12:35:19.529Z,53.50
2018-07-08T12:37:47.459Z,53.60
2018-07-08T12:40:15.241Z,53.10
2018-07-08T12:42:43.567Z,53.60
2018-07-08T12:45:12.920Z,53.30
2018-07-08T12:47:40.889Z,51.40
2018-07-08T12:50:08.800Z,52.60
2018-07-08T12:52:37.353Z,50.70
2018-07-08T12:55:05.856Z,50.30
2018-07-08T12:57:34.440Z,49.80
2018-07-08T13:00:03.021Z,49.60
2018-07-08T13:02:31.993Z,50.80
2018-07-08T13:04:59.798Z,50.10
2018-07-08T13:07:27.672Z,50.90
2018-07-08T13:09:56.311Z,50.30
2018-07-08T13:14:53.209Z,47.60
2018-07-08T13:17:21.796Z,47.10
2018-07-08T13:19:50.755Z,49.50
2018-07-08T13:24:48.171Z,48.60
2018-07-08T13:27:17.102Z,48.30
2018-07-08T13:29:45.107Z,48.70
2018-07-08T13:34:41.712Z,49.10
2018-07-08T13:37:10.171Z,47.90
2018-07-08T13:39:37.944Z,47.40
2018-07-08T13:42:06.510Z,46.70
2018-07-08T13:44:34.584Z,47.30
2018-07-08T13:47:02.131Z,47.20
2018-07-08T13:49:30.949Z,48.20
2018-07-08T13:51:58.488Z,48.60
2018-07-08T13:54:26.090Z,47.90
2018-07-08T13:56:53.774Z,47.30
2018-07-08T13:59:22.435Z,47.30
2018-07-08T14:01:50.820Z,47.50
2018-07-08T14:04:18.411Z,47.30
2018-07-08T14:06:46.603Z,47.20
2018-07-08T14:09:14.757Z,47.30
2018-07-08T14:11:43.029Z,47.90
2018-07-08T14:16:39.480Z,47.20
2018-07-08T14:19:07.556Z,46.50
2018-07-08T14:21:35.184Z,47.60
2018-07-08T14:24:03.208Z,47.50
2018-07-08T14:26:30.787Z,46.60
2018-07-08T14:28:58.457Z,47.50
2018-07-08T14:31:26.256Z,47.90
2018-07-08T14:33:53.788Z,48.10
2018-07-08T14:36:23.889Z,48.50
2018-07-08T14:38:52.038Z,48.40
2018-07-08T14:41:19.592Z,48.60
2018-07-08T14:43:47.604Z,48.90
2018-07-08T14:46:15.255Z,49.30
2018-07-08T14:48:43.104Z,49.30
2018-07-08T14:51:10.644Z,49.40
2018-07-08T14:53:38.601Z,49.90
2018-07-08T14:56:06.136Z,49.80
2018-07-08T14:58:34.627Z,50.10
2018-07-08T15:01:02.804Z,49.30
2018-07-08T15:03:30.542Z,49.90
2018-07-08T15:05:58.504Z,49.50
2018-07-08T15:08:26.525Z,50.10
2018-07-08T15:13:23.392Z,50.40
2018-07-08T15:15:51.366Z,50.00
2018-07-08T15:18:19.496Z,49.80
2018-07-08T15:20:47.033Z,49.60
2018-07-08T15:23:15.197Z,49.40
2018-07-08T15:25:42.800Z,48.70
2018-07-08T15:28:10.404Z,49.60
2018-07-08T15:30:38.699Z,49.50
2018-07-08T15:35:35.131Z,48.30
2018-07-08T15:38:03.227Z,48.40
2018-07-08T15:40:30.968Z,48.60
2018-07-08T15:42:59.193Z,47.50
2018-07-08T15:45:27.307Z,46.50
2018-07-08T15:47:54.968Z,47.50
2018-07-08T15:50:22.670Z,47.30
2018-07-08T15:52:51.273Z,46.90
2018-07-08T15:55:18.841Z,47.90
2018-07-08T15:57:47.420Z,47.10
2018-07-08T16:00:15.522Z,47.50
2018-07-08T16:02:44.340Z,47.80
2018-07-08T16:05:12.273Z,47.90
2018-07-08T16:07:40.792Z,47.70
2018-07-08T16:10:09.144Z,46.80
2018-07-08T16:17:33.722Z,46.50
2018-07-08T16:20:01.629Z,46.70
2018-07-08T16:22:29.626Z,46.40
2018-07-08T16:24:58.628Z,46.20
2018-07-08T16:27:26.316Z,46.20
2018-07-08T16:29:54.512Z,46.10
2018-07-08T16:32:22.784Z,45.50
2018-07-08T16:34:50.859Z,45.30
2018-07-08T16:37:18.412Z,45.20
2018-07-08T16:39:45.968Z,45.40
2018-07-08T16:42:14.188Z,45.90
2018-07-08T16:44:42.272Z,45.60
2018-07-08T16:47:11.916Z,47.00
2018-07-08T16:49:39.468Z,47.10
2018-07-08T16:52:07.065Z,47.50
2018-07-08T16:54:34.990Z,47.70
2018-07-08T16:57:02.796Z,47.50
2018-07-08T17:04:27.428Z,46.40
2018-07-08T17:06:55.021Z,43.90
2018-07-08T17:09:23.176Z,44.70
2018-07-08T17:16:47.108Z,41.90
2018-07-08T17:19:15.198Z,42.40
2018-07-08T17:21:44.066Z,40.80
2018-07-08T17:26:39.603Z,41.90
2018-07-08T17:29:07.152Z,42.10
2018-07-08T17:31:35.443Z,44.10
2018-07-08T17:36:30.913Z,44.10
2018-07-08T17:38:59.096Z,44.30
2018-07-08T17:41:27.345Z,44.90
2018-07-08T17:46:23.828Z,45.90
2018-07-08T17:48:51.728Z,46.70
2018-07-08T17:51:19.876Z,48.10
2018-07-08T17:53:48.880Z,52.10
2018-07-08T17:56:18.049Z,51.40
2018-07-08T18:01:16.266Z,53.20
2018-07-08T18:03:44.457Z,52.80
2018-07-08T18:06:12.804Z,54.20
2018-07-08T18:11:08.852Z,54.40
2018-07-08T18:16:05.835Z,54.70
2018-07-08T18:18:33.808Z,55.70
2018-07-08T18:21:02.012Z,55.00
2018-07-08T18:23:29.602Z,57.70
2018-07-08T18:25:57.121Z,58.80
2018-07-08T18:28:25.243Z,60.60
2018-07-08T18:30:53.464Z,62.90
2018-07-08T18:33:21.577Z,59.70
2018-07-08T18:35:49.662Z,62.00
2018-07-08T18:38:17.675Z,61.20
2018-07-08T18:40:45.980Z,61.70
2018-07-08T18:43:14.611Z,62.20
2018-07-08T18:45:42.270Z,62.10
2018-07-08T18:48:10.298Z,64.90
2018-07-08T18:50:38.105Z,64.90
2018-07-08T18:53:05.875Z,64.00
2018-07-08T18:55:34.361Z,64.80
2018-07-08T18:58:02.777Z,67.00
2018-07-08T19:00:31.534Z,68.00
2018-07-08T19:02:59.937Z,68.90
2018-07-08T19:05:27.850Z,65.80
2018-07-08T19:10:24.352Z,65.90
2018-07-08T19:12:52.866Z,68.80
2018-07-08T19:15:20.881Z,68.60
2018-07-08T19:17:49.669Z,68.70
2018-07-08T19:20:17.637Z,69.20
2018-07-08T19:22:45.560Z,69.20
2018-07-08T19:25:13.595Z,70.40
2018-07-08T19:27:43.297Z,70.60
2018-07-08T19:30:11.706Z,71.70
2018-07-08T19:32:40.722Z,70.40
2018-07-08T19:35:10.158Z,71.00
2018-07-08T19:37:38.879Z,72.50
2018-07-08T19:40:06.793Z,73.00
2018-07-08T19:42:35.224Z,77.30
2018-07-08T19:45:03.865Z,73.40
2018-07-08T19:47:31.782Z,74.40
2018-07-08T19:49:59.744Z,73.40
2018-07-08T19:52:27.566Z,76.60
2018-07-08T19:54:56.065Z,75.50
2018-07-08T19:57:24.977Z,75.10
2018-07-08T19:59:53.868Z,76.60
2018-07-08T20:02:22.002Z,79.30
2018-07-08T20:07:18.976Z,76.00
2018-07-08T20:09:47.591Z,76.60
2018-07-08T20:12:16.287Z,83.10
2018-07-08T20:14:44.261Z,80.50
2018-07-08T20:17:12.476Z,79.10
2018-07-08T20:19:40.616Z,77.00
2018-07-08T20:22:09.058Z,79.40
2018-07-08T20:24:38.103Z,78.00
2018-07-08T20:27:06.582Z,77.40
2018-07-08T20:29:35.020Z,79.10
2018-07-08T20:32:06.674Z,78.30
2018-07-08T20:34:34.844Z,77.80
2018-07-08T20:37:02.411Z,79.40
2018-07-08T20:39:30.092Z,78.70
2018-07-08T20:41:58.822Z,78.50
2018-07-08T20:44:26.990Z,80.60
2018-07-08T20:46:54.636Z,78.70
2018-07-08T20:49:23.256Z,80.40
2018-07-08T20:51:50.856Z,80.40
2018-07-08T20:54:19.776Z,80.00
2018-07-08T20:56:49.028Z,80.60
2018-07-08T20:59:17.093Z,80.80
2018-07-08T21:01:44.948Z,81.40
2018-07-08T21:04:12.899Z,80.30
2018-07-08T21:06:40.473Z,80.20
2018-07-08T21:09:09.229Z,80.70
2018-07-08T21:11:37.307Z,84.10
2018-07-08T21:14:04.923Z,82.90
2018-07-08T21:16:32.820Z,82.40
2018-07-08T21:19:01.172Z,80.20
2018-07-08T21:23:56.860Z,82.10
2018-07-08T21:26:24.880Z,80.10
2018-07-08T21:28:52.475Z,82.60
2018-07-08T21:31:20.692Z,81.90
2018-07-08T21:33:48.338Z,82.00
2018-07-08T21:36:16.384Z,81.10
2018-07-08T21:38:43.930Z,82.50
2018-07-08T21:41:12.000Z,81.00
2018-07-08T21:43:39.995Z,82.90
2018-07-08T21:46:08.593Z,82.70
2018-07-08T21:48:36.198Z,82.70
2018-07-08T21:51:03.768Z,84.90
2018-07-08T21:53:32.066Z,81.30
2018-07-08T21:56:00.014Z,82.20
2018-07-08T21:58:28.327Z,83.00
2018-07-08T22:01:10.620Z,82.70
2018-07-08T22:03:38.163Z,83.80
2018-07-08T22:06:05.825Z,84.40
2018-07-08T22:08:34.040Z,83.30
2018-07-08T22:11:05.041Z,83.20
2018-07-08T22:13:32.680Z,83.80
2018-07-08T22:16:00.304Z,82.40
2018-07-08T22:18:29.056Z,82.90
2018-07-08T22:20:56.932Z,85.40
2018-07-08T22:23:25.579Z,82.40
2018-07-08T22:25:54.291Z,81.60
2018-07-08T22:28:21.909Z,82.30
2018-07-08T22:30:50.096Z,82.40
2018-07-08T22:33:18.623Z,83.60
2018-07-08T22:35:47.462Z,83.10
2018-07-08T22:38:16.609Z,84.10
2018-07-08T22:40:45.220Z,82.40
2018-07-08T22:43:13.256Z,83.20
2018-07-08T22:45:41.187Z,83.60
2018-07-08T22:48:08.715Z,84.50
2018-07-08T22:50:36.872Z,83.50
2018-07-08T22:55:33.480Z,83.50
2018-07-08T22:58:01.549Z,83.30
2018-07-08T23:00:41.447Z,83.60
2018-07-08T23:04:24.213Z,83.50
2018-07-08T23:06:51.768Z,83.60
2018-07-08T23:09:19.952Z,86.10
2018-07-08T23:11:47.502Z,84.80
2018-07-08T23:14:15.041Z,84.60
2018-07-08T23:16:43.999Z,84.00
2018-07-08T23:19:11.966Z,84.40
2018-07-08T23:21:39.542Z,85.40
2018-07-08T23:24:07.179Z,84.70
2018-07-08T23:26:35.591Z,84.30
2018-07-08T23:29:03.211Z,84.30
2018-07-08T23:31:31.374Z,84.20
2018-07-08T23:33:58.963Z,84.70
2018-07-08T23:36:27.961Z,86.50
2018-07-08T23:38:55.493Z,85.20
2018-07-08T23:41:23.128Z,84.60
2018-07-08T23:43:52.328Z,84.70
2018-07-08T23:46:19.911Z,84.40
2018-07-08T23:48:48.178Z,85.20
2018-07-08T23:51:15.709Z,84.20
2018-07-08T23:53:43.260Z,83.90
2018-07-08T23:56:11.269Z,84.90
2018-07-08T23:58:39.189Z,84.70
